KSHN/SHN METAR and TAF weather

Enter ICAO airport designator
Station Type Date Time Source
KSHN METAR 2021/07/26 16:53 UTC NOAA

KSHN 261653Z AUTO 00000KT 10SM CLR 19/13 A3002 RMK AO2 SLP163 T01890133


Station Type Date Time Source
KSHN Decoded METAR 2021/07/26 16:53 UTC NOAA

SHELTON SANDERSON FIELD, WA, United States (KSHN) 47-14N 123-08W 82M
Jul 26, 2021 - 12:53 PM EDT / 2021.07.26 1653 UTC
Wind: Calm:0
Visibility: 10 mile(s):0
Sky conditions: clear
Temperature: 66.0 F (18.9 C)
Dew Point: 55.9 F (13.3 C)
Relative Humidity: 69%
Pressure (altimeter): 30.02 in. Hg (1016 hPa)
ob: KSHN 261653Z AUTO 00000KT 10SM CLR 19/13 A3002 RMK AO2 SLP163 T01890133
cycle: 17

Station Type Date Time Source
KSHN TAF UTC NOAA

Error!

Example: see airport list